Time;durP1;ratioP1;P1;durP2;ratioP2;P2;SDS_P1;SDS_P2;PMS_P1;PMS_P2;Temp;Humidity;BMP_temperature;BMP_pressure;BME280_temperature;BME280_humidity;BME280_pressure;Samples;Min_cycle;Max_cycle;Signal;HPM_P1;HPM_P2
2022/02/19 00:00:10;;;;;;;6.05;3.17;;;;;;;2.24;64.63;99184.81;4904067;29;20056;-55
2022/02/19 00:02:37;;;;;;;7.03;2.10;;;;;;;2.22;64.75;99187.34;4906586;29;20060;-56
2022/02/19 00:05:04;;;;;;;12.13;3.70;;;;;;;2.19;65.80;99192.41;4902561;29;20052;-55
2022/02/19 00:07:31;;;;;;;7.38;2.28;;;;;;;2.18;65.73;99211.13;4907345;29;20222;-56
2022/02/19 00:09:58;;;;;;;3.58;1.38;;;;;;;2.18;65.14;99211.13;4906267;29;20068;-55
2022/02/19 00:12:25;;;;;;;5.85;2.38;;;;;;;2.19;64.50;99212.84;4904039;29;20107;-53
2022/02/19 00:14:53;;;;;;;9.82;2.47;;;;;;;2.17;65.02;99219.63;4902123;29;20080;-51
2022/02/19 00:17:21;;;;;;;4.82;1.58;;;;;;;2.19;66.00;99212.84;4903636;29;20055;-55
2022/02/19 00:19:48;;;;;;;7.05;2.85;;;;;;;2.17;66.15;99220.47;4905550;29;20511;-56
2022/02/19 00:22:15;;;;;;;3.42;1.88;;;;;;;2.15;65.18;99226.38;4907433;29;20702;-57
2022/02/19 00:24:42;;;;;;;7.10;1.60;;;;;;;2.15;65.06;99241.72;4906061;29;20045;-51
2022/02/19 00:27:10;;;;;;;6.10;1.27;;;;;;;2.14;65.50;99242.56;4904702;29;20595;-56
2022/02/19 00:29:37;;;;;;;8.00;2.95;;;;;;;2.14;64.82;99251.09;4902753;29;20142;-54
2022/02/19 00:32:05;;;;;;;3.75;1.27;;;;;;;2.14;65.94;99256.22;4909753;29;20103;-53
2022/02/19 00:34:32;;;;;;;3.35;1.33;;;;;;;2.13;65.78;99262.13;4898090;29;20052;-55
2022/02/19 00:36:59;;;;;;;4.03;0.95;;;;;;;2.15;65.09;99272.38;4904410;29;20048;-53
2022/02/19 00:39:26;;;;;;;4.00;1.63;;;;;;;2.14;64.96;99270.66;4905057;29;20139;-54
2022/02/19 00:41:53;;;;;;;5.75;2.50;;;;;;;2.16;64.64;99279.22;4904161;29;20691;-53
2022/02/19 00:44:19;;;;;;;1.85;1.10;;;;;;;2.19;65.17;99284.38;4903687;29;20051;-53
2022/02/19 00:46:46;;;;;;;2.90;1.73;;;;;;;2.19;65.25;99292.03;4906556;29;20052;-57
2022/02/19 00:49:13;;;;;;;3.67;1.77;;;;;;;2.20;64.37;99301.44;4900760;29;20051;-54
2022/02/19 00:51:39;;;;;;;2.50;1.45;;;;;;;2.19;64.54;99299.72;4906016;29;20048;-55
2022/02/19 00:54:06;;;;;;;2.72;1.17;;;;;;;2.20;64.92;99304.00;4907405;29;20092;-54
2022/02/19 00:56:33;;;;;;;2.80;1.52;;;;;;;2.20;64.23;99306.56;4907118;29;20052;-55
2022/02/19 00:58:59;;;;;;;2.90;1.77;;;;;;;2.18;64.47;99309.09;4908930;29;20104;-54
2022/02/19 01:01:26;;;;;;;5.15;1.98;;;;;;;2.18;65.34;99309.09;4906684;29;20591;-52
2022/02/19 01:03:53;;;;;;;5.50;1.92;;;;;;;2.18;64.58;99315.88;4903725;29;20081;-51
2022/02/19 01:06:20;;;;;;;2.80;1.10;;;;;;;2.17;64.00;99314.16;4902936;29;20488;-58
2022/02/19 01:08:49;;;;;;;6.78;0.65;;;;;;;2.18;64.88;99308.22;4901419;29;20400;-55
2022/02/19 01:11:16;;;;;;;3.45;1.40;;;;;;;2.17;64.50;99301.38;4899559;29;20055;-54
2022/02/19 01:13:43;;;;;;;1.67;1.58;;;;;;;2.19;64.28;99309.94;4903562;29;20115;-56
2022/02/19 01:16:10;;;;;;;3.33;1.02;;;;;;;2.21;64.14;99313.38;4906464;29;20056;-55
2022/02/19 01:18:37;;;;;;;7.90;1.75;;;;;;;2.22;64.27;99309.13;4905492;29;20055;-55
2022/02/19 01:21:03;;;;;;;3.25;1.38;;;;;;;2.22;64.41;99314.22;4899127;29;20448;-53
2022/02/19 01:23:30;;;;;;;5.60;0.55;;;;;;;2.24;63.88;99317.69;4903938;29;20424;-55
2022/02/19 01:25:57;;;;;;;7.93;1.75;;;;;;;2.23;64.54;99316.81;4903211;29;20052;-54
2022/02/19 01:28:23;;;;;;;8.38;1.65;;;;;;;2.24;64.01;99333.91;4904109;29;20081;-53
2022/02/19 01:30:50;;;;;;;9.00;2.20;;;;;;;2.23;64.87;99327.03;4901079;29;20052;-54
2022/02/19 01:33:17;;;;;;;4.18;1.30;;;;;;;2.22;65.09;99338.09;4902706;29;20167;-56
2022/02/19 01:35:44;;;;;;;5.25;1.60;;;;;;;2.18;64.35;99349.97;4904705;29;20048;-56
2022/02/19 01:38:10;;;;;;;5.20;1.63;;;;;;;2.16;65.25;99341.41;4903750;29;20048;-57
2022/02/19 01:40:38;;;;;;;3.63;1.95;;;;;;;2.13;64.66;99337.94;4909530;29;20104;-54
2022/02/19 01:43:04;;;;;;;1.23;1.13;;;;;;;2.12;64.92;99356.63;4904859;29;20063;-56
2022/02/19 01:45:31;;;;;;;3.50;1.42;;;;;;;2.11;65.77;99352.34;4909067;29;20055;-57
2022/02/19 01:47:58;;;;;;;2.33;1.40;;;;;;;2.10;65.94;99358.31;4907919;29;20052;-54
2022/02/19 01:50:24;;;;;;;2.83;0.30;;;;;;;2.11;65.79;99352.34;4906202;29;20436;-53
2022/02/19 01:52:51;;;;;;;3.97;1.30;;;;;;;2.11;64.73;99362.56;4905990;29;20080;-57
2022/02/19 01:55:18;;;;;;;4.93;1.45;;;;;;;2.11;66.40;99368.56;4907575;29;20052;-54
2022/02/19 01:57:45;;;;;;;5.32;1.98;;;;;;;2.11;65.59;99368.56;4909589;29;20052;-56
2022/02/19 02:00:13;;;;;;;4.45;1.60;;;;;;;2.13;65.28;99363.47;4903664;29;20132;-54
2022/02/19 02:02:41;;;;;;;2.58;1.48;;;;;;;2.15;65.70;99383.13;4908980;29;20054;-53
2022/02/19 02:05:08;;;;;;;3.22;1.42;;;;;;;2.18;65.36;99379.75;4903218;29;20107;-56
2022/02/19 02:07:35;;;;;;;7.03;1.70;;;;;;;2.21;66.10;99379.81;4904757;29;20040;-53
2022/02/19 02:10:02;;;;;;;1.55;1.30;;;;;;;2.20;65.10;99385.78;4907145;29;20496;-53
2022/02/19 02:12:29;;;;;;;2.42;1.45;;;;;;;2.19;64.96;99391.69;4911817;29;20064;-54
2022/02/19 02:14:56;;;;;;;6.13;1.55;;;;;;;2.18;66.26;99400.19;4909402;29;20084;-54
2022/02/19 02:17:22;;;;;;;3.28;1.52;;;;;;;2.13;66.56;99407.75;4907021;29;20052;-48
2022/02/19 02:19:49;;;;;;;5.13;0.43;;;;;;;2.11;65.67;99411.13;4907909;29;20980;-51
2022/02/19 02:22:16;;;;;;;4.57;1.40;;;;;;;2.04;66.36;99412.69;4907786;29;20095;-53
2022/02/19 02:24:43;;;;;;;2.55;1.60;;;;;;;2.03;65.52;99411.81;4908528;29;20056;-52
2022/02/19 02:27:14;;;;;;;7.15;1.83;;;;;;;2.00;66.04;99416.88;4901357;29;20051;-56
2022/02/19 02:29:44;;;;;;;4.82;1.77;;;;;;;1.99;67.08;99417.69;4911512;29;20052;-56
2022/02/19 02:32:11;;;;;;;4.10;1.52;;;;;;;1.95;66.00;99412.50;4910767;29;20059;-54
2022/02/19 02:34:55;;;;;;;3.90;1.55;;;;;;;1.89;66.62;99419.16;4909469;29;20048;-55
2022/02/19 02:37:22;;;;;;;1.38;1.25;;;;;;;1.88;66.91;99412.34;4905935;29;20052;-54
2022/02/19 02:39:49;;;;;;;3.85;1.73;;;;;;;1.83;67.33;99421.59;4907662;29;20104;-51
2022/02/19 02:42:17;;;;;;;4.10;1.33;;;;;;;1.78;67.18;99421.50;4909907;29;20060;-52
2022/02/19 02:44:44;;;;;;;7.05;1.73;;;;;;;1.79;67.95;99417.25;4912676;29;20045;-53
2022/02/19 02:47:30;;;;;;;2.55;1.25;;;;;;;1.75;67.26;99421.41;4909519;29;20112;-55
2022/02/19 02:49:57;;;;;;;3.60;1.85;;;;;;;1.73;67.68;99438.41;4909080;29;20048;-55
2022/02/19 02:52:23;;;;;;;3.78;0.50;;;;;;;1.70;68.54;99428.13;4913565;29;20428;-54
2022/02/19 02:54:50;;;;;;;5.72;1.80;;;;;;;1.66;68.56;99442.47;4912597;29;21460;-54
2022/02/19 02:57:16;;;;;;;3.53;1.80;;;;;;;1.65;68.49;99439.88;4911738;29;20060;-55
2022/02/19 02:59:43;;;;;;;6.28;1.80;;;;;;;1.65;67.30;99437.34;4913695;29;20047;-55
2022/02/19 03:02:09;;;;;;;5.07;1.55;;;;;;;1.67;68.73;99443.34;4910565;29;20048;-54
2022/02/19 03:04:36;;;;;;;5.28;1.58;;;;;;;1.64;67.72;99439.03;4909509;29;20045;-54
2022/02/19 03:07:03;;;;;;;8.50;1.50;;;;;;;1.64;68.70;99450.94;4904791;29;21961;-57
2022/02/19 03:09:29;;;;;;;5.88;0.70;;;;;;;1.63;68.62;99444.13;4905582;29;20303;-56
2022/02/19 03:11:56;;;;;;;12.52;2.13;;;;;;;1.61;68.15;99443.19;4907947;29;20059;-54
2022/02/19 03:14:23;;;;;;;2.17;1.42;;;;;;;1.60;67.78;99456.78;4908238;29;20115;-58
2022/02/19 03:16:49;;;;;;;6.85;1.83;;;;;;;1.59;69.20;99449.97;4908933;29;20059;-54
2022/02/19 03:19:16;;;;;;;4.82;1.30;;;;;;;1.58;69.18;99461.88;4906966;29;20501;-55
2022/02/19 03:21:43;;;;;;;7.57;1.05;;;;;;;1.56;67.80;99465.22;4914020;29;20432;-55
2022/02/19 03:24:09;;;;;;;5.45;1.42;;;;;;;1.53;68.46;99461.75;4911224;29;20103;-51
2022/02/19 03:26:36;;;;;;;3.80;1.63;;;;;;;1.53;68.50;99461.75;4911975;29;20044;-52
2022/02/19 03:29:03;;;;;;;5.15;2.05;;;;;;;1.49;69.20;99475.25;4906129;29;20056;-54
2022/02/19 03:31:30;;;;;;;4.95;1.48;;;;;;;1.48;69.16;99478.63;4905566;29;20670;-52
2022/02/19 03:33:56;;;;;;;6.05;1.75;;;;;;;1.48;68.13;99485.41;4911244;29;20112;-55
2022/02/19 03:36:23;;;;;;;2.65;1.77;;;;;;;1.46;69.16;99470.09;4907909;29;20135;-52
2022/02/19 03:38:49;;;;;;;4.78;1.95;;;;;;;1.44;69.39;99481.94;4906418;29;20115;-50
2022/02/19 03:41:16;;;;;;;3.05;1.35;;;;;;;1.42;69.67;99478.50;4904907;29;20528;-52
2022/02/19 03:43:43;;;;;;;2.83;1.35;;;;;;;1.41;68.30;99484.41;4905637;29;20051;-52
2022/02/19 03:46:09;;;;;;;3.90;0.50;;;;;;;1.39;69.41;99488.63;4906345;29;20480;-56
2022/02/19 03:48:36;;;;;;;2.58;1.58;;;;;;;1.37;69.11;99490.25;4908193;29;20477;-56
2022/02/19 03:51:05;;;;;;;6.72;1.77;;;;;;;1.36;69.13;99489.41;4909555;29;20056;-54
2022/02/19 03:53:31;;;;;;;2.10;1.42;;;;;;;1.37;69.34;99485.16;4904016;29;20155;-54
2022/02/19 03:55:58;;;;;;;4.22;1.55;;;;;;;1.36;69.78;99489.41;4909591;29;20044;-54
2022/02/19 03:58:24;;;;;;;4.90;2.05;;;;;;;1.36;69.54;99488.53;4908630;29;20087;-51
2022/02/19 04:00:51;;;;;;;1.88;1.63;;;;;;;1.35;69.92;99486.81;4908288;29;20056;-50
2022/02/19 04:03:18;;;;;;;6.35;2.53;;;;;;;1.33;68.83;99491.00;4906000;29;20048;-54
2022/02/19 04:05:46;;;;;;;8.10;1.77;;;;;;;1.32;69.58;99491.84;4907005;29;20095;-53
2022/02/19 04:08:13;;;;;;;5.63;0.65;;;;;;;1.33;69.63;99496.13;4905957;29;20715;-56
2022/02/19 04:10:39;;;;;;;5.95;0.57;;;;;;;1.32;69.34;99497.78;4901067;29;20456;-57
2022/02/19 04:13:06;;;;;;;3.53;1.23;;;;;;;1.31;69.30;99502.88;4911993;29;20055;-53
2022/02/19 04:15:33;;;;;;;11.85;2.10;;;;;;;1.31;68.64;99500.34;4901195;29;20049;-49
2022/02/19 04:18:00;;;;;;;9.55;1.52;;;;;;;1.30;69.02;99498.56;4905411;29;20107;-51
2022/02/19 04:20:26;;;;;;;3.83;1.52;;;;;;;1.28;69.55;99499.41;4910202;29;20044;-56
2022/02/19 04:22:53;;;;;;;1.77;1.13;;;;;;;1.27;69.29;99489.16;4908722;29;20103;-55
2022/02/19 04:25:20;;;;;;;7.07;1.60;;;;;;;1.25;69.45;99494.22;4905960;29;20511;-53
2022/02/19 04:27:46;;;;;;;3.42;1.88;;;;;;;1.24;69.59;99500.16;4905219;29;20056;-56
2022/02/19 04:30:13;;;;;;;7.22;1.08;;;;;;;1.23;69.32;99506.09;4905713;29;20115;-54
2022/02/19 04:32:40;;;;;;;4.60;1.27;;;;;;;1.22;70.52;99501.78;4907422;29;20052;-56
2022/02/19 04:35:06;;;;;;;4.95;1.40;;;;;;;1.19;70.17;99511.94;4908634;29;20059;-52
2022/02/19 04:37:33;;;;;;;3.28;1.20;;;;;;;1.19;70.89;99511.06;4909796;29;20055;-55
2022/02/19 04:40:00;;;;;;;4.25;1.30;;;;;;;1.16;70.77;99511.84;4904345;29;20060;-54
2022/02/19 04:42:27;;;;;;;7.38;1.80;;;;;;;1.16;69.88;99514.41;4904867;29;20048;-57
2022/02/19 04:44:53;;;;;;;3.40;1.25;;;;;;;1.15;70.49;99510.97;4903315;29;20115;-52
2022/02/19 04:47:20;;;;;;;3.25;1.20;;;;;;;1.17;70.33;99508.47;4906115;29;20067;-54
2022/02/19 04:49:48;;;;;;;2.78;1.65;;;;;;;1.17;71.12;99516.13;4908959;29;20084;-50
2022/02/19 04:52:15;;;;;;;1.80;0.55;;;;;;;1.16;71.25;99516.94;4903695;29;20457;-55
2022/02/19 04:54:42;;;;;;;2.63;1.20;;;;;;;1.16;70.74;99511.84;4906632;29;20052;-56
2022/02/19 04:57:09;;;;;;;1.63;1.52;;;;;;;1.18;72.03;99520.41;4905478;29;20062;-57
2022/02/19 04:59:35;;;;;;;4.80;1.85;;;;;;;1.19;70.59;99511.94;4906515;29;20051;-52
2022/02/19 05:02:02;;;;;;;3.38;1.55;;;;;;;1.20;71.42;99523.00;4903633;29;20048;-52
2022/02/19 05:04:29;;;;;;;3.95;1.30;;;;;;;1.19;71.14;99523.81;4907826;29;20133;-53
2022/02/19 05:06:56;;;;;;;10.63;1.60;;;;;;;1.21;71.91;99525.59;4910512;29;20060;-57
2022/02/19 05:09:22;;;;;;;6.55;1.65;;;;;;;1.20;72.28;99518.75;4903853;29;20064;-53
2022/02/19 05:11:49;;;;;;;5.95;2.65;;;;;;;1.22;70.97;99517.09;4904942;29;20104;-56
2022/02/19 05:14:15;;;;;;;4.70;1.02;;;;;;;1.23;71.61;99507.78;4905596;29;20052;-56
2022/02/19 05:16:42;;;;;;;5.13;2.20;;;;;;;1.24;72.08;99505.25;4904931;29;20059;-56
2022/02/19 05:19:09;;;;;;;3.13;1.35;;;;;;;1.22;72.17;99506.88;4904398;29;20048;-52
2022/02/19 05:21:35;;;;;;;4.78;1.45;;;;;;;1.22;71.76;99506.88;4906863;29;20548;-56
2022/02/19 05:24:02;;;;;;;7.75;1.58;;;;;;;1.21;71.64;99514.53;4907466;29;20052;-54
2022/02/19 05:26:29;;;;;;;6.88;1.10;;;;;;;1.22;71.68;99501.78;4909158;29;20123;-54
2022/02/19 05:28:56;;;;;;;6.10;2.50;;;;;;;1.23;72.22;99507.78;4909905;29;20115;-54
2022/02/19 05:31:22;;;;;;;7.68;2.33;;;;;;;1.22;71.30;99506.88;4904499;29;20044;-56
2022/02/19 05:33:49;;;;;;;3.28;1.48;;;;;;;1.23;72.11;99498.44;4912401;29;20092;-54
2022/02/19 05:36:15;;;;;;;10.98;1.77;;;;;;;1.23;71.88;99498.44;4908228;29;20103;-53
2022/02/19 05:38:42;;;;;;;7.15;1.45;;;;;;;1.25;70.97;99501.03;4910531;29;20051;-53
2022/02/19 05:41:09;;;;;;;4.13;1.15;;;;;;;1.25;72.08;99496.78;4902989;29;20100;-52
2022/02/19 05:43:35;;;;;;;1.40;1.25;;;;;;;1.25;71.99;99499.31;4908243;29;20052;-52
2022/02/19 05:46:02;;;;;;;6.03;1.33;;;;;;;1.25;70.95;99496.78;4904478;29;20056;-53
2022/02/19 05:48:29;;;;;;;4.03;1.30;;;;;;;1.25;71.53;99501.88;4906155;29;20055;-54
2022/02/19 05:50:56;;;;;;;6.75;1.33;;;;;;;1.25;72.57;99496.78;4908949;29;20052;-51
2022/02/19 05:53:22;;;;;;;5.85;1.42;;;;;;;1.24;71.55;99502.72;4902778;29;20064;-57
2022/02/19 05:55:49;;;;;;;2.13;0.32;;;;;;;1.27;71.85;99504.47;4906476;29;20347;-54
2022/02/19 05:58:15;;;;;;;4.93;0.60;;;;;;;1.27;71.83;99497.69;4907668;29;20396;-56
2022/02/19 06:00:42;;;;;;;5.82;2.08;;;;;;;1.30;72.74;99488.38;4903900;29;20092;-55
2022/02/19 06:03:10;;;;;;;1.48;1.38;;;;;;;1.27;72.08;99492.59;4903664;29;20048;-55
2022/02/19 06:05:38;;;;;;;2.70;2.50;;;;;;;1.31;71.86;99485.03;4904052;29;20057;-55
2022/02/19 06:08:06;;;;;;;5.47;1.58;;;;;;;1.31;72.06;99485.88;4912738;29;20053;-54
2022/02/19 06:10:39;;;;;;;6.95;1.52;;;;;;;1.30;72.74;99488.38;4907447;29;20054;-54
2022/02/19 06:13:07;;;;;;;6.80;1.05;;;;;;;1.32;71.33;99486.75;4911704;29;20052;-54
2022/02/19 06:15:33;;;;;;;6.40;1.55;;;;;;;1.33;71.79;99488.47;4907658;29;20485;-55
2022/02/19 06:18:00;;;;;;;6.65;1.45;;;;;;;1.34;71.70;99487.63;4908842;29;20068;-51
2022/02/19 06:20:27;;;;;;;7.70;0.55;;;;;;;1.34;72.51;99482.53;4908909;29;20480;-53
2022/02/19 06:22:54;;;;;;;4.40;1.58;;;;;;;1.33;72.13;99483.34;4913212;29;20064;-55
2022/02/19 06:25:20;;;;;;;5.70;1.40;;;;;;;1.32;72.25;99487.59;4908992;29;20111;-52
2022/02/19 06:27:47;;;;;;;7.68;1.42;;;;;;;1.34;72.47;99487.63;4909739;29;20450;-52
2022/02/19 06:30:14;;;;;;;9.43;1.63;;;;;;;1.34;71.45;99482.53;4911453;29;20052;-52
2022/02/19 06:32:42;;;;;;;2.65;1.20;;;;;;;1.34;71.18;99495.28;4910733;29;20043;-54
2022/02/19 06:35:09;;;;;;;3.00;0.40;;;;;;;1.32;71.49;99502.06;4909073;29;20508;-54
2022/02/19 06:37:38;;;;;;;6.70;1.50;;;;;;;1.30;70.97;99498.56;4906870;29;20056;-49
2022/02/19 06:40:06;;;;;;;5.38;1.73;;;;;;;1.28;71.99;99501.09;4907975;29;20052;-55
2022/02/19 06:42:33;;;;;;;2.95;1.42;;;;;;;1.27;71.94;99505.34;4910565;29;20047;-51
2022/02/19 06:44:59;;;;;;;6.95;1.70;;;;;;;1.26;71.25;99505.31;4907840;29;20055;-54
2022/02/19 06:47:26;;;;;;;6.13;1.20;;;;;;;1.22;72.25;99501.78;4910724;29;20059;-55
2022/02/19 06:49:52;;;;;;;7.80;2.42;;;;;;;1.21;71.20;99506.88;4908133;29;20092;-55
2022/02/19 06:52:19;;;;;;;5.18;1.55;;;;;;;1.20;71.87;99506.00;4907050;29;20055;-54
2022/02/19 06:54:46;;;;;;;10.38;1.83;;;;;;;1.19;71.43;99516.16;4909648;29;20056;-55
2022/02/19 06:57:14;;;;;;;3.65;1.45;;;;;;;1.17;70.95;99503.38;4906868;29;20051;-56
2022/02/19 06:59:41;;;;;;;5.32;1.23;;;;;;;1.13;71.35;99486.25;4909841;29;20052;-55
2022/02/19 07:02:08;;;;;;;7.45;1.85;;;;;;;1.16;71.15;99491.44;4906834;29;20064;-54
2022/02/19 07:04:35;;;;;;;5.50;1.60;;;;;;;1.16;71.26;99491.44;4911011;29;20495;-53
2022/02/19 07:07:01;;;;;;;2.85;1.30;;;;;;;1.17;72.06;99493.16;4910592;29;20056;-52
2022/02/19 07:09:28;;;;;;;1.98;1.33;;;;;;;1.15;72.09;99494.81;4910834;29;20051;-56
2022/02/19 07:11:56;;;;;;;8.30;2.75;;;;;;;1.15;71.20;99494.81;4907587;29;20044;-51
2022/02/19 07:14:23;;;;;;;6.57;1.55;;;;;;;1.14;71.71;99491.41;4907552;29;20055;-54
2022/02/19 07:16:50;;;;;;;7.07;1.63;;;;;;;1.13;70.77;99491.34;4908366;29;20052;-53
2022/02/19 07:19:19;;;;;;;5.93;2.45;;;;;;;1.13;71.81;99483.69;4911024;29;20055;-51
2022/02/19 07:21:46;;;;;;;6.70;1.45;;;;;;;1.13;70.86;99487.13;4908123;29;20099;-52
2022/02/19 07:24:13;;;;;;;3.13;1.63;;;;;;;1.12;71.35;99490.47;4910840;29;20084;-55
2022/02/19 07:26:39;;;;;;;4.88;1.77;;;;;;;1.13;71.06;99496.47;4911047;29;20741;-55
2022/02/19 07:29:06;;;;;;;5.90;1.80;;;;;;;1.15;71.44;99494.81;4907288;29;20063;-52
2022/02/19 07:31:33;;;;;;;3.15;1.33;;;;;;;1.15;71.65;99499.94;4908208;29;20052;-54
2022/02/19 07:33:59;;;;;;;4.07;0.80;;;;;;;1.16;71.97;99496.53;4907844;29;20429;-55
2022/02/19 07:36:26;;;;;;;9.27;2.80;;;;;;;1.18;71.81;99499.97;4911115;29;20485;-56
2022/02/19 07:38:52;;;;;;;10.88;3.20;;;;;;;1.19;70.60;99511.94;4908282;29;20099;-52
2022/02/19 07:41:19;;;;;;;5.43;0.60;;;;;;;1.21;71.05;99515.38;4911048;29;20461;-52
2022/02/19 07:43:46;;;;;;;4.50;1.63;;;;;;;1.22;71.11;99522.19;4906227;29;20083;-56
2022/02/19 07:46:13;;;;;;;5.40;0.40;;;;;;;1.26;71.86;99518.06;4908452;29;20456;-55
2022/02/19 07:48:39;;;;;;;9.70;1.55;;;;;;;1.28;71.31;99512.16;4909220;29;20060;-55
2022/02/19 07:59:25;;;;;;;4.70;1.45;;;;;;;1.69;71.67;99492.75;4908263;29;20080;-53
2022/02/19 08:01:52;;;;;;;3.17;1.38;;;;;;;1.80;70.15;99504.09;4901831;29;20052;-52
2022/02/19 08:04:19;;;;;;;2.40;1.20;;;;;;;1.95;70.77;99500.19;4901554;29;20055;-52
2022/02/19 08:06:46;;;;;;;7.70;1.30;;;;;;;2.12;69.71;99513.34;4911317;29;20048;-56
2022/02/19 08:09:13;;;;;;;4.55;0.88;;;;;;;2.44;69.40;99520.88;4906251;29;20385;-54
2022/02/19 08:11:40;;;;;;;8.15;1.73;;;;;;;2.65;69.33;99519.63;4905467;29;20047;-52
2022/02/19 08:14:07;;;;;;;5.25;1.42;;;;;;;2.75;68.48;99510.44;4907450;29;20056;-54
2022/02/19 08:16:34;;;;;;;5.28;1.80;;;;;;;2.79;67.93;99508.78;4911164;29;20075;-56
2022/02/19 08:19:01;;;;;;;5.18;2.05;;;;;;;2.78;68.59;99518.19;4910652;29;20111;-54
2022/02/19 08:21:27;;;;;;;1.65;0.52;;;;;;;2.83;67.82;99524.25;4909699;29;20791;-55
2022/02/19 08:23:54;;;;;;;3.63;0.65;;;;;;;2.95;68.91;99533.00;4906598;29;20056;-53
2022/02/19 08:26:24;;;;;;;5.22;1.90;;;;;;;3.03;67.72;99526.34;4910541;29;20048;-51
2022/02/19 08:28:51;;;;;;;6.13;1.25;;;;;;;3.00;68.24;99516.03;4906784;29;20084;-56
2022/02/19 08:31:18;;;;;;;2.10;1.00;;;;;;;3.01;68.31;99516.91;4909210;29;20067;-54
2022/02/19 08:33:45;;;;;;;3.25;1.48;;;;;;;3.01;68.38;99511.78;4904500;29;20676;-49
2022/02/19 08:36:11;;;;;;;2.45;1.90;;;;;;;3.02;68.32;99505.84;4914715;29;20056;-53
2022/02/19 08:38:38;;;;;;;3.40;1.55;;;;;;;2.96;67.18;99501.47;4909367;29;20056;-55
2022/02/19 08:41:05;;;;;;;6.90;2.13;;;;;;;2.92;66.96;99492.00;4913154;29;20103;-54
2022/02/19 08:43:31;;;;;;;4.65;1.83;;;;;;;2.86;67.76;99489.31;4906029;29;20056;-58
2022/02/19 08:45:58;;;;;;;1.73;1.23;;;;;;;2.84;68.60;99484.19;4912569;29;20525;-53
2022/02/19 08:48:24;;;;;;;6.05;1.65;;;;;;;2.78;67.99;99472.16;4914098;29;20051;-56
2022/02/19 08:50:51;;;;;;;2.78;1.45;;;;;;;2.75;68.64;99469.53;4909920;29;20072;-56
2022/02/19 08:53:22;;;;;;;3.20;1.70;;;;;;;2.76;68.12;99472.91;4909662;29;20468;-55
2022/02/19 08:55:49;;;;;;;;;;;;;;;2.72;68.12;99468.56;4908261;29;20055;-55
2022/02/19 08:58:16;;;;;;;5.18;2.13;;;;;;;2.74;68.58;99483.16;4908638;29;19923;-57
2022/02/19 09:00:43;;;;;;;5.40;0.77;;;;;;;2.71;69.34;99477.97;4912293;29;20427;-55
2022/02/19 09:03:09;;;;;;;4.53;0.80;;;;;;;2.71;68.30;99472.84;4907864;29;20067;-52
2022/02/19 09:05:36;;;;;;;4.13;1.65;;;;;;;2.72;67.88;99464.34;4906902;29;20103;-55
2022/02/19 09:08:03;;;;;;;4.13;1.73;;;;;;;2.74;69.05;99455.00;4906255;29;20052;-56
2022/02/19 09:10:35;;;;;;;8.27;2.08;;;;;;;2.73;69.03;99460.94;4907938;29;20044;-53
2022/02/19 09:13:01;;;;;;;7.47;2.08;;;;;;;2.77;68.15;99460.16;4909149;29;20135;-56
2022/02/19 09:15:28;;;;;;;7.25;1.83;;;;;;;2.76;68.65;99466.13;4901285;29;20052;-55
2022/02/19 09:17:55;;;;;;;3.67;1.63;;;;;;;2.78;69.42;99469.59;4907933;29;20055;-53
2022/02/19 09:20:22;;;;;;;3.58;2.22;;;;;;;2.83;68.98;99467.09;4909382;29;20054;-57
2022/02/19 09:22:49;;;;;;;4.43;3.10;;;;;;;2.88;68.95;99459.53;4905823;29;20051;-54
2022/02/19 09:25:16;;;;;;;13.60;1.88;;;;;;;2.92;68.54;99468.97;4893591;29;20123;-53
2022/02/19 09:27:44;;;;;;;5.05;0.40;;;;;;;2.94;68.84;99464.75;4906909;29;20400;-55
2022/02/19 09:30:12;;;;;;;5.88;2.33;;;;;;;2.96;69.68;99460.53;4907471;29;20049;-55
2022/02/19 09:32:39;;;;;;;2.30;2.10;;;;;;;3.00;68.76;99449.50;4904748;29;20091;-56
2022/02/19 09:35:06;;;;;;;2.97;0.63;;;;;;;3.03;69.84;99439.34;4907183;29;20436;-52
2022/02/19 09:37:33;;;;;;;6.10;1.65;;;;;;;3.07;69.12;99441.13;4904710;29;20056;-54
2022/02/19 09:40:02;;;;;;;2.97;1.67;;;;;;;3.14;69.02;99425.88;4901378;29;20064;-52
2022/02/19 09:42:29;;;;;;;4.53;0.52;;;;;;;3.16;70.45;99430.19;4913547;29;20395;-52
2022/02/19 09:44:57;;;;;;;6.57;1.70;;;;;;;3.24;70.57;99414.94;4910531;29;20052;-59
2022/02/19 09:47:27;;;;;;;5.95;1.88;;;;;;;3.30;70.28;99409.94;4912844;29;20044;-52
2022/02/19 09:49:55;;;;;;;3.22;1.40;;;;;;;3.32;70.86;99410.81;4913546;29;20048;-56
2022/02/19 09:52:23;;;;;;;4.93;1.40;;;;;;;3.37;70.61;99405.78;4904072;29;20134;-55
2022/02/19 09:54:51;;;;;;;4.55;1.85;;;;;;;3.42;71.26;99409.28;4898573;29;20552;-57
2022/02/19 09:57:19;;;;;;;4.20;2.22;;;;;;;3.45;71.81;99395.69;4909085;29;20062;-55
2022/02/19 09:59:45;;;;;;;4.72;1.60;;;;;;;3.50;71.48;99404.28;4908380;29;20052;-55
2022/02/19 10:02:12;;;;;;;4.88;1.98;;;;;;;3.52;71.59;99402.63;4908885;29;20100;-56
2022/02/19 10:04:44;;;;;;;11.18;2.28;;;;;;;3.57;71.88;99411.22;4912572;29;20048;-52
2022/02/19 10:07:14;;;;;;;5.55;2.53;;;;;;;3.60;71.20;99411.28;4910849;29;20134;-55
2022/02/19 10:09:45;;;;;;;7.10;1.80;;;;;;;3.64;71.85;99416.44;4897850;29;20055;-55
2022/02/19 10:12:14;;;;;;;4.35;0.60;;;;;;;3.65;71.31;99418.16;4899544;29;20059;-54
2022/02/19 10:14:42;;;;;;;8.10;2.05;;;;;;;3.65;72.22;99428.41;4911365;29;20078;-52
2022/02/19 10:17:16;;;;;;;5.03;2.10;;;;;;;3.64;72.11;99422.41;4909596;29;20052;-52
2022/02/19 10:19:49;;;;;;;3.63;1.92;;;;;;;3.63;71.96;99417.28;4912899;29;20044;-50
2022/02/19 10:22:19;;;;;;;6.80;2.10;;;;;;;3.62;72.23;99407.88;4923191;29;20096;-58
2022/02/19 10:24:50;;;;;;;10.30;1.60;;;;;;;3.58;72.35;99402.69;4910319;29;21015;-56
2022/02/19 10:27:17;;;;;;;4.57;1.52;;;;;;;3.57;72.96;99395.84;4910168;29;20554;-53
2022/02/19 10:29:47;;;;;;;10.02;1.70;;;;;;;3.57;72.28;99392.44;4901518;29;20051;-56
2022/02/19 10:32:16;;;;;;;6.50;2.67;;;;;;;3.56;72.57;99388.16;4899797;29;20703;-58
2022/02/19 10:35:05;;;;;;;9.95;2.33;;;;;;;3.53;73.76;99368.47;4909315;29;20048;-57
2022/02/19 10:37:42;;;;;;;6.90;2.17;;;;;;;3.53;74.05;99373.59;4906919;29;20114;-56
2022/02/19 10:40:29;;;;;;;5.28;2.25;;;;;;;3.52;74.33;99371.91;4906497;29;20060;-56
2022/02/19 10:42:58;;;;;;;3.85;2.17;;;;;;;3.53;74.04;99353.13;4908449;29;20060;-53
2022/02/19 10:45:26;;;;;;;9.77;2.00;;;;;;;3.51;74.69;99338.59;4901269;29;20053;-57
2022/02/19 10:48:09;;;;;;;3.78;1.83;;;;;;;3.48;74.72;99324.03;4900130;29;20057;-56
2022/02/19 10:50:36;;;;;;;4.95;2.42;;;;;;;3.46;75.05;99330.81;4912719;29;20044;-54
2022/02/19 10:53:08;;;;;;;5.57;1.52;;;;;;;3.43;75.30;99325.66;4903563;29;20684;-55
2022/02/19 10:55:36;;;;;;;2.15;1.50;;;;;;;3.40;75.47;99320.47;4910027;29;20059;-55
2022/02/19 10:58:05;;;;;;;11.57;1.25;;;;;;;3.39;75.89;99319.63;4909353;29;20409;-58
2022/02/19 11:00:35;;;;;;;7.38;1.92;;;;;;;3.40;76.00;99315.34;4910436;29;20535;-59
2022/02/19 11:03:04;;;;;;;7.40;1.90;;;;;;;3.34;75.74;99322.13;4911173;29;20060;-56
2022/02/19 11:05:32;;;;;;;8.25;1.67;;;;;;;3.38;76.13;99306.81;4910776;29;20115;-52
2022/02/19 11:08:00;;;;;;;7.90;1.58;;;;;;;3.32;76.41;99300.75;4910120;29;20048;-55
2022/02/19 11:10:28;;;;;;;6.60;2.05;;;;;;;3.28;76.01;99288.75;4908468;29;20056;-53
2022/02/19 11:12:56;;;;;;;5.68;2.70;;;;;;;3.27;75.93;99279.34;4909452;29;20079;-56
2022/02/19 11:15:23;;;;;;;4.75;1.00;;;;;;;3.25;76.87;99259.69;4903627;29;20060;-53
2022/02/19 11:17:51;;;;;;;7.30;1.83;;;;;;;3.21;76.11;99261.38;4891886;29;20052;-57
2022/02/19 11:20:19;;;;;;;2.17;1.35;;;;;;;3.14;76.44;99237.34;4891389;29;20111;-57
2022/02/19 11:22:47;;;;;;;2.38;2.05;;;;;;;3.08;76.98;99220.22;4891126;29;20067;-54
2022/02/19 11:25:19;;;;;;;2.67;1.52;;;;;;;3.06;77.58;99211.69;4892847;29;20052;-53
2022/02/19 11:27:53;;;;;;;3.47;1.20;;;;;;;2.97;76.65;99208.97;4892156;29;20135;-55
2022/02/19 11:30:20;;;;;;;1.33;0.40;;;;;;;2.94;77.14;99178.25;4896748;29;20461;-53
2022/02/19 11:32:48;;;;;;;9.90;1.98;;;;;;;2.94;77.50;99173.13;4890417;29;20048;-53
2022/02/19 11:35:30;;;;;;;3.28;2.28;;;;;;;2.87;77.84;99151.69;4892702;29;20111;-54
2022/02/19 11:37:57;;;;;;;1.67;1.17;;;;;;;2.85;77.05;99137.16;4903618;29;20048;-57
2022/02/19 11:40:25;;;;;;;3.78;1.45;;;;;;;2.85;77.78;99124.38;4901572;29;20052;-57
2022/02/19 11:42:53;;;;;;;1.50;1.15;;;;;;;2.79;77.23;99113.25;4903842;29;20048;-53
2022/02/19 11:45:25;;;;;;;3.13;2.13;;;;;;;2.79;78.57;99104.69;4902405;29;20048;-55
2022/02/19 11:47:55;;;;;;;1.17;0.50;;;;;;;2.76;78.96;99077.38;4912907;29;20410;-55
2022/02/19 11:50:23;;;;;;;;;;;;;;;2.68;78.85;99054.28;4906429;29;20575;-56